Time;durP1;ratioP1;P1;durP2;ratioP2;P2;SDS_P1;SDS_P2;PMS_P1;PMS_P2;Temp;Humidity;BMP_temperature;BMP_pressure;BME280_temperature;BME280_humidity;BME280_pressure;Samples;Min_cycle;Max_cycle;Signal;HPM_P1;HPM_P2
2021/12/29 00:01:38;;;;;;;4.43;1.63;;;;;;;;;;4962797;28;20354;-62
2021/12/29 00:04:05;;;;;;;7.73;1.90;;;;;;;;;;4963654;28;20229;-64
2021/12/29 00:06:32;;;;;;;7.87;2.33;;;;;;;;;;4964492;28;20201;-64
2021/12/29 00:09:00;;;;;;;6.03;1.93;;;;;;;;;;4961221;28;20252;-63
2021/12/29 00:11:27;;;;;;;7.17;2.03;;;;;;;;;;4961887;28;20196;-64
2021/12/29 00:13:55;;;;;;;7.53;1.63;;;;;;;;;;4949085;28;20287;-64
2021/12/29 00:16:22;;;;;;;6.60;1.57;;;;;;;;;;4950689;28;20664;-63
2021/12/29 00:18:50;;;;;;;10.00;1.90;;;;;;;;;;4956992;28;20220;-63
2021/12/29 00:21:17;;;;;;;7.73;1.70;;;;;;;;;;4968463;28;20208;-63
2021/12/29 00:23:45;;;;;;;5.97;1.43;;;;;;;;;;4991526;28;20284;-62
2021/12/29 00:26:28;;;;;;;3.60;1.50;;;;;;;;;;4964260;28;20227;-64
2021/12/29 00:28:58;;;;;;;6.27;1.73;;;;;;;;;;4954026;28;20675;-63
2021/12/29 00:31:27;;;;;;;6.60;1.97;;;;;;;;;;4957775;28;20662;-63
2021/12/29 00:33:54;;;;;;;3.63;1.30;;;;;;;;;;4970013;28;20223;-64
2021/12/29 00:36:22;;;;;;;4.50;1.53;;;;;;;;;;4973158;28;20224;-63
2021/12/29 00:38:49;;;;;;;7.63;1.87;;;;;;;;;;4960428;28;21489;-62
2021/12/29 00:41:17;;;;;;;6.30;2.50;;;;;;;;;;4959520;28;20227;-64
2021/12/29 00:43:44;;;;;;;5.87;1.70;;;;;;;;;;4974976;28;20265;-62
2021/12/29 00:46:13;;;;;;;5.20;1.73;;;;;;;;;;4962635;28;20216;-63
2021/12/29 00:48:43;;;;;;;3.40;1.40;;;;;;;;;;4961067;28;20577;-63
2021/12/29 00:51:11;;;;;;;3.00;1.47;;;;;;;;;;4956880;28;21217;-62
2021/12/29 00:53:38;;;;;;;5.97;1.60;;;;;;;;;;4958758;28;20236;-64
2021/12/29 00:56:06;;;;;;;6.60;1.87;;;;;;;;;;4963430;28;20662;-61
2021/12/29 00:58:34;;;;;;;4.50;1.40;;;;;;;;;;4965733;28;20286;-64
2021/12/29 01:01:01;;;;;;;4.30;1.60;;;;;;;;;;4956078;28;20220;-63
2021/12/29 01:03:29;;;;;;;2.97;1.57;;;;;;;;;;4965544;28;20326;-63
2021/12/29 01:05:56;;;;;;;4.70;1.60;;;;;;;;;;4979295;28;20209;-64
2021/12/29 01:08:23;;;;;;;6.87;1.70;;;;;;;;;;4960819;28;20204;-64
2021/12/29 01:10:51;;;;;;;4.50;1.30;;;;;;;;;;4961230;28;20215;-62
2021/12/29 01:13:29;;;;;;;2.43;1.50;;;;;;;;;;4959810;28;20216;-63
2021/12/29 01:16:36;;;;;;;4.53;1.37;;;;;;;;;;4967443;28;20204;-62
2021/12/29 01:18:44;;;;;;;5.10;1.50;;;;;;;;;;4981119;28;20212;-63
2021/12/29 01:21:12;;;;;;;6.47;1.40;;;;;;;;;;4965914;28;20216;-63
2021/12/29 01:23:39;;;;;;;4.40;1.43;;;;;;;;;;4964319;28;20398;-64
2021/12/29 01:26:07;;;;;;;3.63;1.30;;;;;;;;;;4973278;28;20671;-63
2021/12/29 01:28:34;;;;;;;3.23;1.30;;;;;;;;;;4957575;28;20263;-62
2021/12/29 01:31:02;;;;;;;3.27;1.27;;;;;;;;;;4957704;28;20208;-63
2021/12/29 01:33:29;;;;;;;3.40;1.30;;;;;;;;;;4966288;28;20683;-63
2021/12/29 01:35:57;;;;;;;2.53;1.33;;;;;;;;;;4967333;28;20205;-63
2021/12/29 01:38:24;;;;;;;3.60;1.27;;;;;;;;;;4965022;28;20204;-65
2021/12/29 01:40:51;;;;;;;3.87;1.50;;;;;;;;;;4966147;28;20234;-64
2021/12/29 01:43:19;;;;;;;3.97;1.87;;;;;;;;;;4953726;28;20228;-64
2021/12/29 01:45:47;;;;;;;2.77;1.17;;;;;;;;;;4960254;28;20211;-64
2021/12/29 01:48:16;;;;;;;2.47;1.30;;;;;;;;;;4958881;28;20294;-64
2021/12/29 01:50:48;;;;;;;2.00;1.33;;;;;;;;;;4954150;28;20220;-63
2021/12/29 01:53:23;;;;;;;2.83;1.40;;;;;;;;;;4965769;28;20255;-63
2021/12/29 01:55:51;;;;;;;3.17;1.33;;;;;;;;;;4965745;28;20634;-62
2021/12/29 01:58:19;;;;;;;1.97;1.10;;;;;;;;;;4966553;28;20220;-63
2021/12/29 02:00:46;;;;;;;3.63;1.13;;;;;;;;;;4968121;28;20622;-63
2021/12/29 02:03:14;;;;;;;2.77;1.30;;;;;;;;;;4974254;28;20259;-64
2021/12/29 02:05:42;;;;;;;2.43;1.20;;;;;;;;;;4966392;28;20234;-63
2021/12/29 02:08:10;;;;;;;5.23;1.20;;;;;;;;;;4969001;28;20630;-63
2021/12/29 02:10:45;;;;;;;1.63;1.20;;;;;;;;;;4985041;28;20209;-62
2021/12/29 02:13:13;;;;;;;5.63;1.20;;;;;;;;;;4986048;28;20223;-64
2021/12/29 02:15:41;;;;;;;3.90;1.43;;;;;;;;;;4965900;28;20573;-63
2021/12/29 02:18:14;;;;;;;4.93;1.47;;;;;;;;;;4969356;28;20738;-64
2021/12/29 02:20:43;;;;;;;3.40;1.00;;;;;;;;;;4974329;28;20219;-63
2021/12/29 02:23:34;;;;;;;4.23;1.33;;;;;;;;;;4953453;28;20215;-62
2021/12/29 02:26:03;;;;;;;5.53;1.70;;;;;;;;;;4960896;28;20298;-63
2021/12/29 02:28:34;;;;;;;6.00;1.30;;;;;;;;;;4969637;28;20211;-63
2021/12/29 02:31:02;;;;;;;2.37;1.10;;;;;;;;;;4965292;28;20204;-64
2021/12/29 02:33:31;;;;;;;3.30;1.10;;;;;;;;;;4980266;28;20273;-63
2021/12/29 02:35:59;;;;;;;4.20;1.37;;;;;;;;;;4964310;28;20208;-63
2021/12/29 02:38:28;;;;;;;1.93;1.30;;;;;;;;;;4956070;28;20671;-64
2021/12/29 02:40:57;;;;;;;3.70;1.10;;;;;;;;;;4967929;28;20211;-64
2021/12/29 02:43:25;;;;;;;4.37;1.60;;;;;;;;;;4968618;28;20220;-63
2021/12/29 02:45:59;;;;;;;1.80;0.93;;;;;;;;;;4963527;28;20667;-63
2021/12/29 02:48:34;;;;;;;2.77;1.10;;;;;;;;;;4964270;28;20222;-64
2021/12/29 02:51:01;;;;;;;2.53;1.47;;;;;;;;;;4967723;28;20216;-62
2021/12/29 02:53:30;;;;;;;6.20;2.37;;;;;;;;;;4955174;28;20224;-63
2021/12/29 02:55:58;;;;;;;5.43;3.43;;;;;;;;;;4962414;28;20258;-63
2021/12/29 02:58:26;;;;;;;3.97;1.90;;;;;;;;;;4956657;28;20263;-65
2021/12/29 03:00:54;;;;;;;2.53;1.40;;;;;;;;;;4957518;28;22353;-64
2021/12/29 03:03:23;;;;;;;3.80;1.30;;;;;;;;;;4968025;28;20841;-64
2021/12/29 03:05:51;;;;;;;3.07;1.27;;;;;;;;;;4974264;28;20199;-63
2021/12/29 03:08:19;;;;;;;4.07;1.03;;;;;;;;;;4951725;28;20205;-63
2021/12/29 03:10:52;;;;;;;2.73;1.10;;;;;;;;;;4961890;28;20769;-63
2021/12/29 03:13:21;;;;;;;3.23;1.10;;;;;;;;;;4962273;28;20752;-64
2021/12/29 03:15:48;;;;;;;2.53;1.10;;;;;;;;;;4974329;28;20235;-64
2021/12/29 03:18:16;;;;;;;4.03;1.40;;;;;;;;;;4961068;28;20212;-64
2021/12/29 03:20:43;;;;;;;5.87;1.30;;;;;;;;;;4960824;28;20267;-62
2021/12/29 03:23:11;;;;;;;3.33;1.17;;;;;;;;;;4955875;28;20267;-63
2021/12/29 03:25:39;;;;;;;3.43;2.13;;;;;;;;;;4980632;28;20236;-64
2021/12/29 03:28:06;;;;;;;13.63;9.40;;;;;;;;;;4966190;28;20279;-64
2021/12/29 03:30:36;;;;;;;2.97;1.10;;;;;;;;;;4961074;28;20627;-64
2021/12/29 03:33:04;;;;;;;3.37;1.17;;;;;;;;;;4962547;28;20196;-62
2021/12/29 03:35:39;;;;;;;3.80;1.60;;;;;;;;;;4963902;28;20622;-63
2021/12/29 03:38:09;;;;;;;3.40;1.50;;;;;;;;;;4966865;28;20671;-63
2021/12/29 03:40:36;;;;;;;3.33;1.20;;;;;;;;;;4962827;28;20670;-64
2021/12/29 03:43:05;;;;;;;8.27;1.37;;;;;;;;;;4960301;28;20572;-62
2021/12/29 03:45:33;;;;;;;1.80;1.20;;;;;;;;;;4964112;28;20270;-64
2021/12/29 03:48:00;;;;;;;2.57;1.10;;;;;;;;;;4981174;28;20204;-63
2021/12/29 03:50:28;;;;;;;4.03;1.10;;;;;;;;;;4954586;28;20207;-63
2021/12/29 03:52:55;;;;;;;3.70;1.10;;;;;;;;;;4956400;28;20204;-63
2021/12/29 03:55:23;;;;;;;1.47;0.97;;;;;;;;;;4966489;28;20228;-64
2021/12/29 03:57:50;;;;;;;3.93;1.20;;;;;;;;;;4959753;28;20212;-64
2021/12/29 04:00:19;;;;;;;2.53;1.30;;;;;;;;;;4951382;28;20232;-63
2021/12/29 04:02:46;;;;;;;3.37;1.30;;;;;;;;;;4959666;28;20216;-63
2021/12/29 04:05:16;;;;;;;3.93;1.20;;;;;;;;;;4958528;28;20240;-61
2021/12/29 04:07:43;;;;;;;3.60;1.10;;;;;;;;;;4955115;28;20255;-63
2021/12/29 04:10:11;;;;;;;3.90;1.10;;;;;;;;;;4969302;28;20271;-63
2021/12/29 04:12:39;;;;;;;3.07;1.10;;;;;;;;;;4965591;28;20196;-64
2021/12/29 04:15:07;;;;;;;2.63;1.00;;;;;;;;;;4977900;28;20677;-64
2021/12/29 04:17:37;;;;;;;2.30;0.90;;;;;;;;;;4958767;28;20212;-62
2021/12/29 04:22:55;;;;;;;1.60;0.93;;;;;;;;;;4980804;28;20219;-65
2021/12/29 04:25:24;;;;;;;2.03;0.80;;;;;;;;;;4961719;28;20236;-64
2021/12/29 04:27:52;;;;;;;2.23;1.10;;;;;;;;;;4961181;28;20227;-64
2021/12/29 04:30:21;;;;;;;1.13;0.90;;;;;;;;;;4965305;28;20203;-63
2021/12/29 04:32:50;;;;;;;1.57;1.07;;;;;;;;;;4978386;28;20707;-63
2021/12/29 04:35:17;;;;;;;2.93;1.03;;;;;;;;;;4962429;28;20698;-63
2021/12/29 04:37:44;;;;;;;3.50;1.00;;;;;;;;;;4956617;28;20262;-64
2021/12/29 04:40:12;;;;;;;1.40;1.00;;;;;;;;;;4973465;28;20201;-64
2021/12/29 04:42:40;;;;;;;1.77;1.00;;;;;;;;;;4978732;28;20678;-64
2021/12/29 04:45:07;;;;;;;2.30;1.00;;;;;;;;;;4956777;28;20235;-63
2021/12/29 04:47:38;;;;;;;2.20;1.10;;;;;;;;;;4970161;28;20258;-63
2021/12/29 04:50:13;;;;;;;2.80;1.10;;;;;;;;;;4952513;28;20212;-63
2021/12/29 04:52:40;;;;;;;1.00;0.90;;;;;;;;;;4953736;28;20208;-64
2021/12/29 04:55:08;;;;;;;0.97;0.90;;;;;;;;;;4952941;28;20231;-63
2021/12/29 04:57:36;;;;;;;2.50;1.00;;;;;;;;;;4948727;28;20212;-63
2021/12/29 05:00:05;;;;;;;1.47;0.93;;;;;;;;;;4958046;28;20760;-63
2021/12/29 05:02:32;;;;;;;1.43;1.00;;;;;;;;;;4951553;28;20623;-64
2021/12/29 05:05:07;;;;;;;1.97;1.10;;;;;;;;;;4950260;28;22322;-63
2021/12/29 05:10:21;;;;;;;1.40;0.90;;;;;;;;;;4971804;28;20216;-64
2021/12/29 05:12:48;;;;;;;3.33;1.57;;;;;;;;;;4956782;28;20218;-62
2021/12/29 05:15:16;;;;;;;2.47;1.07;;;;;;;;;;4956362;28;20234;-63
2021/12/29 05:17:43;;;;;;;4.93;1.60;;;;;;;;;;4967646;28;20216;-64
2021/12/29 05:20:11;;;;;;;0.93;0.90;;;;;;;;;;4959803;28;20217;-63
2021/12/29 05:22:38;;;;;;;2.13;1.07;;;;;;;;;;4949828;28;20725;-62
2021/12/29 05:25:06;;;;;;;2.53;1.17;;;;;;;;;;4960032;28;20231;-63
2021/12/29 05:27:33;;;;;;;1.17;0.97;;;;;;;;;;4957107;28;20678;-63
2021/12/29 05:30:03;;;;;;;2.40;1.17;;;;;;;;;;4964684;28;20220;-63
2021/12/29 05:32:32;;;;;;;1.10;0.80;;;;;;;;;;4950062;28;20201;-64
2021/12/29 05:34:59;;;;;;;1.57;0.80;;;;;;;;;;4961366;28;20266;-63
2021/12/29 05:37:27;;;;;;;1.23;0.80;;;;;;;;;;4956332;28;20540;-63
2021/12/29 05:39:54;;;;;;;3.03;0.97;;;;;;;;;;4966171;28;20208;-63
2021/12/29 05:42:21;;;;;;;1.90;0.93;;;;;;;;;;4968197;28;20291;-64
2021/12/29 05:44:49;;;;;;;1.50;1.00;;;;;;;;;;4960553;28;20290;-64
2021/12/29 05:47:16;;;;;;;2.60;1.23;;;;;;;;;;4965264;28;20753;-63
2021/12/29 05:49:44;;;;;;;5.07;1.30;;;;;;;;;;4955810;28;20231;-61
2021/12/29 05:52:13;;;;;;;3.50;1.50;;;;;;;;;;4957900;28;20208;-64
2021/12/29 05:54:41;;;;;;;2.10;1.50;;;;;;;;;;4950269;28;21349;-64
2021/12/29 05:57:08;;;;;;;3.67;1.40;;;;;;;;;;4965241;28;20216;-61
2021/12/29 05:59:36;;;;;;;1.37;1.30;;;;;;;;;;4945761;28;20212;-63
2021/12/29 06:02:04;;;;;;;4.27;1.30;;;;;;;;;;4952539;28;20270;-63
2021/12/29 06:04:32;;;;;;;2.03;1.30;;;;;;;;;;4958992;28;20233;-64
2021/12/29 06:06:59;;;;;;;2.97;1.00;;;;;;;;;;4955436;28;20208;-64
2021/12/29 06:09:27;;;;;;;2.40;1.90;;;;;;;;;;4955702;28;20267;-63
2021/12/29 06:11:55;;;;;;;1.90;1.20;;;;;;;;;;4960720;28;20587;-64
2021/12/29 06:14:22;;;;;;;1.67;1.00;;;;;;;;;;4958963;28;20227;-63
2021/12/29 06:16:50;;;;;;;2.13;1.80;;;;;;;;;;4962969;28;20216;-64
2021/12/29 06:19:17;;;;;;;3.20;2.60;;;;;;;;;;4953087;28;20292;-64
2021/12/29 06:21:45;;;;;;;2.93;1.20;;;;;;;;;;4961947;28;20211;-64
2021/12/29 06:24:13;;;;;;;2.00;0.90;;;;;;;;;;4976615;28;20216;-62
2021/12/29 06:26:40;;;;;;;1.53;0.93;;;;;;;;;;4951366;28;21264;-62
2021/12/29 06:29:07;;;;;;;0.80;0.80;;;;;;;;;;4954436;28;20259;-63
2021/12/29 06:31:35;;;;;;;1.30;0.83;;;;;;;;;;4970646;28;20216;-63
2021/12/29 06:34:02;;;;;;;3.80;1.00;;;;;;;;;;4948010;28;20240;-64
2021/12/29 06:36:30;;;;;;;1.03;0.80;;;;;;;;;;4956915;28;20239;-63
2021/12/29 06:38:57;;;;;;;3.27;1.00;;;;;;;;;;4961481;28;20219;-63
2021/12/29 06:41:25;;;;;;;0.70;0.70;;;;;;;;;;4960971;28;20224;-63
2021/12/29 06:43:52;;;;;;;1.27;1.10;;;;;;;;;;4963060;28;20229;-63
2021/12/29 06:46:20;;;;;;;1.00;1.00;;;;;;;;;;4955306;28;20300;-64
2021/12/29 06:48:47;;;;;;;2.70;1.10;;;;;;;;;;4963890;28;20216;-63
2021/12/29 06:51:15;;;;;;;1.13;0.70;;;;;;;;;;4956326;28;20822;-64
2021/12/29 06:53:42;;;;;;;1.27;1.17;;;;;;;;;;4990765;28;20224;-62
2021/12/29 06:56:09;;;;;;;0.80;0.80;;;;;;;;;;4964943;28;20231;-64
2021/12/29 06:58:37;;;;;;;1.60;1.00;;;;;;;;;;4964657;28;20204;-64
2021/12/29 07:01:05;;;;;;;0.80;0.80;;;;;;;;;;4952322;28;20227;-63
2021/12/29 07:03:33;;;;;;;1.13;0.90;;;;;;;;;;4947853;28;20783;-63
2021/12/29 07:06:00;;;;;;;2.70;1.00;;;;;;;;;;4958552;28;20232;-64
2021/12/29 07:08:28;;;;;;;1.10;1.10;;;;;;;;;;4955439;28;20212;-63
2021/12/29 07:10:55;;;;;;;1.17;0.97;;;;;;;;;;4967895;28;20259;-61
2021/12/29 07:13:23;;;;;;;0.90;0.90;;;;;;;;;;4965069;28;20200;-64
2021/12/29 07:15:50;;;;;;;1.63;0.90;;;;;;;;;;4969427;28;20220;-64
2021/12/29 07:18:18;;;;;;;1.20;1.10;;;;;;;;;;4954819;28;20220;-64
2021/12/29 07:20:45;;;;;;;1.20;1.10;;;;;;;;;;4966385;28;20207;-63
2021/12/29 07:23:13;;;;;;;1.67;1.10;;;;;;;;;;4960640;28;20216;-64
2021/12/29 07:25:40;;;;;;;1.10;0.93;;;;;;;;;;4951028;28;21701;-62
2021/12/29 07:28:08;;;;;;;2.60;1.20;;;;;;;;;;4952043;28;20220;-62
2021/12/29 07:30:35;;;;;;;2.47;1.10;;;;;;;;;;4958611;28;20219;-62
2021/12/29 07:33:03;;;;;;;1.63;0.87;;;;;;;;;;4980691;28;20204;-63
2021/12/29 07:35:30;;;;;;;1.17;0.87;;;;;;;;;;4941374;28;20235;-62
2021/12/29 07:37:58;;;;;;;1.20;1.10;;;;;;;;;;4954614;28;20205;-67
2021/12/29 07:40:26;;;;;;;2.33;0.93;;;;;;;;;;4963324;28;20813;-63
2021/12/29 07:42:54;;;;;;;0.97;0.80;;;;;;;;;;4970039;28;20212;-63
2021/12/29 07:45:23;;;;;;;1.20;1.00;;;;;;;;;;4958024;28;20233;-63
2021/12/29 07:47:51;;;;;;;1.27;1.17;;;;;;;;;;4942070;28;20243;-63
2021/12/29 07:50:19;;;;;;;1.80;1.00;;;;;;;;;;4953152;28;20219;-63
2021/12/29 07:53:02;;;;;;;1.17;0.70;;;;;;;;;;4959615;28;20196;-63
2021/12/29 07:55:30;;;;;;;0.93;0.90;;;;;;;;;;4951546;28;20243;-63
2021/12/29 07:57:57;;;;;;;0.80;0.80;;;;;;;;;;4953633;28;20751;-63
2021/12/29 08:00:25;;;;;;;0.70;0.70;;;;;;;;;;4954603;28;20623;-64
2021/12/29 08:02:53;;;;;;;1.07;0.70;;;;;;;;;;4952737;28;20244;-63
2021/12/29 08:05:22;;;;;;;2.03;0.97;;;;;;;;;;4953987;28;20237;-64
2021/12/29 08:07:50;;;;;;;3.40;0.97;;;;;;;;;;4965521;28;20223;-64
2021/12/29 08:10:17;;;;;;;1.07;0.90;;;;;;;;;;4960463;28;20315;-64
2021/12/29 08:12:45;;;;;;;3.37;1.10;;;;;;;;;;4948709;28;21140;-62
2021/12/29 08:15:12;;;;;;;0.73;0.73;;;;;;;;;;4962694;28;20247;-64
2021/12/29 08:17:40;;;;;;;2.40;1.00;;;;;;;;;;4965674;28;20687;-62
2021/12/29 08:20:08;;;;;;;0.93;0.80;;;;;;;;;;4956703;28;20212;-63
2021/12/29 08:22:36;;;;;;;1.70;0.80;;;;;;;;;;4952251;28;20200;-63
2021/12/29 08:25:04;;;;;;;1.20;0.90;;;;;;;;;;4955209;28;20233;-64
2021/12/29 08:27:31;;;;;;;0.90;0.90;;;;;;;;;;4963146;28;20209;-64
2021/12/29 08:29:58;;;;;;;1.30;0.90;;;;;;;;;;4957392;28;20212;-64
2021/12/29 08:32:26;;;;;;;0.80;0.80;;;;;;;;;;4957489;28;20274;-64
2021/12/29 08:34:54;;;;;;;1.40;0.80;;;;;;;;;;4939397;28;20225;-62
2021/12/29 08:37:21;;;;;;;3.03;0.97;;;;;;;;;;4948401;28;20212;-63
2021/12/29 08:39:49;;;;;;;0.90;0.90;;;;;;;;;;4939618;28;20201;-63
2021/12/29 08:42:16;;;;;;;0.80;0.80;;;;;;;;;;4954306;28;20683;-63
2021/12/29 08:44:44;;;;;;;2.07;0.90;;;;;;;;;;4951559;28;20234;-63
2021/12/29 08:47:11;;;;;;;1.50;0.80;;;;;;;;;;4952503;28;20719;-64
2021/12/29 08:49:39;;;;;;;0.97;0.93;;;;;;;;;;4958874;28;21133;-63
2021/12/29 08:52:06;;;;;;;1.70;0.80;;;;;;;;;;4966264;28;20204;-64
2021/12/29 08:54:34;;;;;;;1.63;0.90;;;;;;;;;;4946157;28;20232;-63
2021/12/29 08:57:02;;;;;;;1.60;1.17;;;;;;;;;;4942644;28;20318;-63
2021/12/29 08:59:30;;;;;;;2.17;1.00;;;;;;;;;;4956714;28;20253;-62
2021/12/29 09:01:57;;;;;;;1.23;1.13;;;;;;;;;;4950756;28;20212;-63
2021/12/29 09:04:25;;;;;;;1.53;0.80;;;;;;;;;;4953438;28;20232;-63
2021/12/29 09:06:57;;;;;;;0.80;0.80;;;;;;;;;;4956376;28;20226;-63
2021/12/29 09:09:25;;;;;;;1.23;0.80;;;;;;;;;;4950842;28;20851;-63
2021/12/29 09:11:53;;;;;;;1.60;1.20;;;;;;;;;;4953056;28;20208;-64
2021/12/29 09:14:20;;;;;;;4.10;1.30;;;;;;;;;;4947200;28;20278;-63
2021/12/29 09:16:48;;;;;;;1.20;1.10;;;;;;;;;;4967554;28;20231;-63
2021/12/29 09:19:15;;;;;;;1.50;0.97;;;;;;;;;;4957208;28;20209;-63
2021/12/29 09:21:44;;;;;;;1.53;0.87;;;;;;;;;;4964612;28;20636;-63
2021/12/29 09:24:13;;;;;;;2.37;1.30;;;;;;;;;;4978821;28;20239;-63
2021/12/29 09:26:40;;;;;;;1.57;1.00;;;;;;;;;;4947025;28;21327;-63
2021/12/29 09:29:08;;;;;;;0.90;0.90;;;;;;;;;;4959500;28;20208;-64
2021/12/29 09:31:35;;;;;;;1.30;0.90;;;;;;;;;;4966009;28;20201;-64
2021/12/29 09:34:03;;;;;;;5.10;0.97;;;;;;;;;;4968557;28;20255;-63
2021/12/29 09:36:30;;;;;;;1.07;0.70;;;;;;;;;;4968282;28;20257;-64
2021/12/29 09:38:58;;;;;;;1.47;1.00;;;;;;;;;;4971443;28;20211;-64
2021/12/29 09:41:25;;;;;;;4.63;2.83;;;;;;;;;;4967088;28;20220;-63
2021/12/29 09:43:52;;;;;;;1.80;1.00;;;;;;;;;;4983881;28;20279;-63
2021/12/29 09:46:20;;;;;;;1.33;0.80;;;;;;;;;;4968291;28;20231;-63
2021/12/29 09:48:49;;;;;;;1.23;0.90;;;;;;;;;;4962742;28;20682;-64
2021/12/29 09:51:17;;;;;;;1.47;1.10;;;;;;;;;;4969297;28;20213;-63
2021/12/29 09:53:45;;;;;;;1.13;1.03;;;;;;;;;;4961401;28;20260;-63
2021/12/29 09:56:13;;;;;;;4.83;1.13;;;;;;;;;;4966481;28;20220;-63
2021/12/29 09:58:40;;;;;;;1.10;1.00;;;;;;;;;;4963499;28;20303;-63
2021/12/29 10:01:08;;;;;;;0.90;0.90;;;;;;;;;;4968590;28;20209;-64
2021/12/29 10:03:37;;;;;;;0.90;0.90;;;;;;;;;;4969767;28;20244;-63
2021/12/29 10:06:06;;;;;;;1.80;1.30;;;;;;;;;;4962875;28;20225;-63
2021/12/29 10:08:35;;;;;;;3.10;1.00;;;;;;;;;;4968549;28;20220;-63
2021/12/29 10:11:05;;;;;;;2.07;1.00;;;;;;;;;;4965139;28;20252;-63
2021/12/29 10:13:37;;;;;;;0.93;0.93;;;;;;;;;;4970465;28;20275;-63
2021/12/29 10:16:07;;;;;;;3.30;0.93;;;;;;;;;;4966101;28;20204;-63
2021/12/29 10:18:36;;;;;;;2.30;1.73;;;;;;;;;;4960260;28;21275;-63
2021/12/29 10:21:08;;;;;;;1.00;1.00;;;;;;;;;;4957306;28;20671;-63
2021/12/29 10:23:37;;;;;;;2.00;1.00;;;;;;;;;;4970603;28;20228;-64
2021/12/29 10:26:19;;;;;;;2.33;1.00;;;;;;;;;;4968950;28;20706;-63
2021/12/29 10:28:51;;;;;;;1.80;1.03;;;;;;;;;;4967153;28;20200;-64
2021/12/29 10:31:20;;;;;;;2.13;1.07;;;;;;;;;;4968453;28;20204;-63
2021/12/29 10:33:49;;;;;;;1.53;1.10;;;;;;;;;;4964843;28;20252;-63
2021/12/29 10:36:24;;;;;;;2.63;1.20;;;;;;;;;;4967413;28;20255;-62
2021/12/29 10:38:58;;;;;;;2.17;1.20;;;;;;;;;;4977458;28;20205;-63
2021/12/29 10:41:29;;;;;;;3.80;1.40;;;;;;;;;;4976515;28;20721;-63
2021/12/29 10:43:58;;;;;;;3.07;1.50;;;;;;;;;;4967331;28;20231;-63
2021/12/29 10:46:26;;;;;;;3.87;1.50;;;;;;;;;;4965324;28;20232;-64
2021/12/29 10:48:55;;;;;;;2.53;1.70;;;;;;;;;;4970808;28;20218;-62
2021/12/29 10:51:30;;;;;;;4.83;1.70;;;;;;;;;;4975590;28;20212;-63
2021/12/29 10:54:06;;;;;;;5.20;2.27;;;;;;;;;;4980961;28;20235;-63
2021/12/29 10:56:34;;;;;;;4.27;1.57;;;;;;;;;;4956026;28;20507;-64
2021/12/29 10:59:12;;;;;;;4.47;1.90;;;;;;;;;;4964128;28;20209;-63
2021/12/29 11:01:39;;;;;;;5.03;1.70;;;;;;;;;;4962358;28;20220;-63
2021/12/29 11:04:08;;;;;;;4.40;1.67;;;;;;;;;;4968029;28;20263;-63
2021/12/29 11:06:40;;;;;;;7.13;1.90;;;;;;;;;;4963495;28;20283;-62
2021/12/29 11:09:08;;;;;;;5.27;1.80;;;;;;;;;;4972294;28;20274;-64
2021/12/29 11:11:41;;;;;;;5.37;1.80;;;;;;;;;;4959882;28;20734;-63
2021/12/29 11:14:17;;;;;;;6.77;2.20;;;;;;;;;;4974411;28;20239;-63
2021/12/29 11:16:45;;;;;;;5.60;1.97;;;;;;;;;;4960044;28;20216;-61
2021/12/29 11:19:13;;;;;;;7.00;2.47;;;;;;;;;;4950537;28;20216;-64
2021/12/29 11:21:42;;;;;;;9.03;6.97;;;;;;;;;;4953481;28;20220;-63
2021/12/29 11:24:14;;;;;;;5.60;3.10;;;;;;;;;;4944072;28;20232;-64
2021/12/29 11:26:41;;;;;;;6.57;1.93;;;;;;;;;;4945767;28;20240;-63
2021/12/29 11:29:11;;;;;;;6.77;2.37;;;;;;;;;;4958180;28;20563;-62
2021/12/29 11:31:40;;;;;;;4.67;2.27;;;;;;;;;;4948258;28;20212;-63
2021/12/29 11:34:25;;;;;;;10.50;2.50;;;;;;;;;;4950728;28;20276;-63
2021/12/29 11:37:04;;;;;;;5.13;2.10;;;;;;;;;;4947540;28;20220;-63
2021/12/29 11:39:33;;;;;;;7.40;2.17;;;;;;;;;;4947444;28;20219;-64
2021/12/29 11:42:01;;;;;;;7.43;2.57;;;;;;;;;;4956355;28;20212;-62
2021/12/29 11:44:28;;;;;;;11.00;2.70;;;;;;;;;;4951012;28;20314;-61
2021/12/29 11:46:56;;;;;;;8.07;2.60;;;;;;;;;;4944028;28;20232;-62
2021/12/29 11:49:24;;;;;;;8.43;2.20;;;;;;;;;;4949123;28;20658;-61
2021/12/29 11:51:55;;;;;;;14.90;3.23;;;;;;;;;;4971459;28;20636;-64
2021/12/29 11:54:29;;;;;;;8.23;2.27;;;;;;;;;;4944052;28;20240;-63
2021/12/29 11:56:56;;;;;;;10.87;2.80;;;;;;;;;;4957554;28;20215;-62
2021/12/29 11:59:31;;;;;;;13.93;3.07;;;;;;;;;;4946893;28;20213;-64
2021/12/29 12:02:02;;;;;;;9.50;2.60;;;;;;;;;;4960243;28;20220;-63
2021/12/29 12:04:30;;;;;;;12.97;2.90;;;;;;;;;;4970412;28;20236;-62
2021/12/29 12:07:02;;;;;;;15.33;3.23;;;;;;;;;;4958652;28;20231;-63
2021/12/29 12:09:30;;;;;;;12.37;2.90;;;;;;;;;;4959417;28;20204;-63
2021/12/29 12:12:03;;;;;;;13.60;3.10;;;;;;;;;;4957687;28;20220;-64
2021/12/29 12:14:30;;;;;;;10.60;2.30;;;;;;;;;;4961932;28;20248;-64
2021/12/29 12:17:06;;;;;;;9.27;2.97;;;;;;;;;;4960687;28;20210;-62
2021/12/29 12:19:34;;;;;;;14.30;2.60;;;;;;;;;;4962495;28;20279;-63
2021/12/29 12:22:02;;;;;;;8.43;2.40;;;;;;;;;;4962194;28;20200;-63
2021/12/29 12:24:30;;;;;;;12.13;2.47;;;;;;;;;;4952799;28;20706;-62
2021/12/29 12:27:03;;;;;;;9.60;2.27;;;;;;;;;;4958019;28;20228;-62
2021/12/29 12:29:32;;;;;;;7.30;2.20;;;;;;;;;;4981405;28;20254;-63
2021/12/29 12:32:04;;;;;;;12.87;2.40;;;;;;;;;;4956603;28;20212;-62
2021/12/29 12:34:33;;;;;;;8.47;2.30;;;;;;;;;;4976614;28;20252;-62
2021/12/29 12:37:01;;;;;;;6.53;2.10;;;;;;;;;;4958695;28;20231;-63
2021/12/29 12:39:36;;;;;;;11.37;2.83;;;;;;;;;;4955967;28;20204;-62
2021/12/29 12:42:16;;;;;;;7.30;2.50;;;;;;;;;;4960892;28;20212;-64
2021/12/29 12:44:44;;;;;;;8.50;2.43;;;;;;;;;;4970716;28;20229;-64
2021/12/29 12:47:13;;;;;;;10.07;2.73;;;;;;;;;;4955575;28;20225;-63
2021/12/29 12:49:42;;;;;;;6.33;1.97;;;;;;;;;;4961873;28;20224;-63
2021/12/29 12:52:15;;;;;;;7.90;2.13;;;;;;;;;;4978241;28;20586;-63
2021/12/29 12:54:47;;;;;;;7.77;2.90;;;;;;;;;;4963975;28;20216;-62
2021/12/29 12:57:25;;;;;;;5.57;2.00;;;;;;;;;;4976985;28;20916;-64
2021/12/29 12:59:54;;;;;;;4.33;2.47;;;;;;;;;;4965460;28;20771;-63
2021/12/29 13:02:25;;;;;;;4.63;2.83;;;;;;;;;;4958210;28;20250;-63
2021/12/29 13:05:16;;;;;;;7.03;1.70;;;;;;;;;;4961215;28;20235;-64
2021/12/29 13:07:51;;;;;;;5.07;1.97;;;;;;;;;;4952473;28;20232;-63
2021/12/29 13:10:26;;;;;;;7.17;1.80;;;;;;;;;;4960923;28;20211;-62
2021/12/29 13:12:58;;;;;;;3.93;1.83;;;;;;;;;;4975871;28;20211;-64
2021/12/29 13:15:27;;;;;;;5.00;2.10;;;;;;;;;;4959281;28;20247;-63
2021/12/29 13:17:54;;;;;;;4.00;1.60;;;;;;;;;;4961781;28;20266;-64
2021/12/29 13:20:22;;;;;;;4.77;1.83;;;;;;;;;;4976383;28;21330;-64
2021/12/29 13:22:49;;;;;;;6.63;2.00;;;;;;;;;;4979090;28;20208;-63
2021/12/29 13:25:18;;;;;;;5.30;1.90;;;;;;;;;;4955833;28;20251;-65
2021/12/29 13:28:00;;;;;;;3.57;1.93;;;;;;;;;;4961180;28;20307;-62
2021/12/29 13:30:28;;;;;;;4.50;2.00;;;;;;;;;;4964167;28;20201;-64
2021/12/29 13:32:57;;;;;;;2.00;1.80;;;;;;;;;;4955254;28;20215;-63
2021/12/29 13:35:26;;;;;;;3.67;2.03;;;;;;;;;;4961589;28;20236;-64
2021/12/29 13:37:56;;;;;;;4.70;1.90;;;;;;;;;;4953903;28;20216;-64
2021/12/29 13:40:27;;;;;;;4.33;1.80;;;;;;;;;;4957192;28;20635;-63
2021/12/29 13:42:55;;;;;;;5.00;2.00;;;;;;;;;;4966951;28;20958;-63
2021/12/29 13:45:24;;;;;;;3.67;2.30;;;;;;;;;;4946067;28;20243;-61
2021/12/29 13:47:51;;;;;;;4.13;2.00;;;;;;;;;;4954482;28;20246;-63
2021/12/29 13:50:19;;;;;;;4.77;3.23;;;;;;;;;;4950406;28;20805;-62
2021/12/29 13:52:57;;;;;;;2.87;2.00;;;;;;;;;;4957523;28;20651;-64
2021/12/29 13:55:26;;;;;;;2.97;2.00;;;;;;;;;;4946614;28;20235;-61
2021/12/29 13:57:54;;;;;;;4.30;2.10;;;;;;;;;;4949805;28;20211;-65
2021/12/29 14:00:21;;;;;;;2.87;2.67;;;;;;;;;;4954893;28;20279;-64
2021/12/29 14:02:50;;;;;;;2.60;2.00;;;;;;;;;;4962602;28;20216;-62
2021/12/29 14:05:18;;;;;;;3.57;2.30;;;;;;;;;;4960370;28;20259;-63
2021/12/29 14:07:46;;;;;;;3.03;2.00;;;;;;;;;;4962869;28;20694;-64
2021/12/29 14:10:14;;;;;;;4.23;2.40;;;;;;;;;;4957531;28;21090;-64
2021/12/29 14:12:42;;;;;;;3.43;2.13;;;;;;;;;;4958541;28;20197;-62
2021/12/29 14:15:17;;;;;;;3.30;2.03;;;;;;;;;;4955889;28;20772;-61
2021/12/29 14:17:47;;;;;;;3.10;2.40;;;;;;;;;;4954139;28;20393;-64
2021/12/29 14:20:15;;;;;;;2.60;2.00;;;;;;;;;;4955847;28;20212;-64
2021/12/29 14:22:43;;;;;;;2.63;2.30;;;;;;;;;;4953457;28;20640;-63
2021/12/29 14:25:33;;;;;;;2.60;2.40;;;;;;;;;;4949072;28;20223;-62
2021/12/29 14:28:00;;;;;;;3.10;2.70;;;;;;;;;;4956885;28;20585;-64
2021/12/29 14:30:28;;;;;;;2.83;2.53;;;;;;;;;;4957989;28;20560;-62
2021/12/29 14:33:00;;;;;;;2.47;2.27;;;;;;;;;;4965332;28;20228;-61
2021/12/29 14:35:33;;;;;;;3.37;1.90;;;;;;;;;;4956591;28;20224;-63
2021/12/29 14:38:11;;;;;;;2.50;1.77;;;;;;;;;;4957924;28;20779;-62
2021/12/29 14:40:38;;;;;;;3.00;2.30;;;;;;;;;;4958781;28;20216;-61
2021/12/29 14:43:16;;;;;;;2.77;1.90;;;;;;;;;;4955438;28;20279;-63
2021/12/29 14:45:48;;;;;;;3.37;1.60;;;;;;;;;;4950383;28;20220;-64
2021/12/29 14:48:16;;;;;;;1.60;1.50;;;;;;;;;;4964033;28;20272;-63
2021/12/29 14:50:45;;;;;;;2.03;1.90;;;;;;;;;;4952539;28;20786;-64
2021/12/29 14:53:12;;;;;;;2.37;1.50;;;;;;;;;;4960319;28;20201;-63
2021/12/29 14:55:40;;;;;;;1.77;1.67;;;;;;;;;;4958275;28;20212;-64
2021/12/29 14:58:18;;;;;;;1.80;1.70;;;;;;;;;;4958539;28;20219;-62
2021/12/29 15:00:46;;;;;;;1.93;1.83;;;;;;;;;;4967711;28;20216;-63